Airport Name : Calgary Springbank

Other Name : Calgary

ICAO : CYBW

IATA : YBW

FAA :

Latitude : 51.103056

Longitude : -114.374444

Country : Canada

Local Date and Time : 7/18/2018 3:59:00 PM

 

TAF (Terminal Aerodrome Forecast)

TAF AMD CYBW 182158Z 1821/1904 18010KT P6SM -SHRA SCT040 BKN100 TEMPO 1822/1902 VRB15G25KT 5SM TSRA BKN040CB OVC100 FM190200 30008KT P6SM SCT080 RMK FCST BASED ON AUTO OBS. NXT FCST BY 190000Z

 

METAR (METeorological Aerodrome Report)

CYBW 182148Z AUTO 19010G16KT 120V200 9SM BKN100 OVC120 21/14 A2998 RMK LTNG DIST N W NW PRESFR SLP148 DENSITY ALT 5400FT

CYBW 182135Z AUTO 18011G16KT 9SM -RA BKN100 OVC120 21/14 A2999 RMK LTNG DIST SW W SLP154 DENSITY ALT 5300FT

CYBW 182100Z AUTO 14011KT 9SM FEW120 22/13 A2999 RMK LTNG DIST S W SLP151 DENSITY ALT 5500FT

CYBW 182000Z AUTO VRB07KT 9SM SCT039 22/13 A3002 RMK LTNG DIST SW SLP157 DENSITY ALT 5500FT

CYBW 181900Z AUTO 12005KT 350V130 9SM CLR 23/14 A3002 RMK SLP157 DENSITY ALT 5500FT

CYBW 181800Z AUTO VRB04KT 9SM SCT030 22/14 A3003 RMK SLP163 DENSITY ALT 5400FT